sensor_id;sensor_type;location;lat;lon;timestamp;pressure;altitude;pressure_sealevel;temperature;humidity
20105;BME280;10212;42.714;23.310;2023-02-08T00:02:22;96743.69;;;-6.20;76.97
20105;BME280;10212;42.714;23.310;2023-02-08T00:12:23;96749.66;;;-6.21;76.76
20105;BME280;10212;42.714;23.310;2023-02-08T00:22:23;96755.25;;;-6.13;77.56
20105;BME280;10212;42.714;23.310;2023-02-08T00:32:24;96763.22;;;-6.22;77.36
20105;BME280;10212;42.714;23.310;2023-02-08T00:42:24;96780.53;;;-6.10;76.30
20105;BME280;10212;42.714;23.310;2023-02-08T00:52:26;96789.38;;;-6.20;77.11
20105;BME280;10212;42.714;23.310;2023-02-08T01:02:27;96796.03;;;-6.16;77.58
20105;BME280;10212;42.714;23.310;2023-02-08T01:12:28;96798.50;;;-6.14;77.03
20105;BME280;10212;42.714;23.310;2023-02-08T01:22:28;96800.00;;;-6.09;77.50
20105;BME280;10212;42.714;23.310;2023-02-08T01:32:29;96784.44;;;-6.01;77.97
20105;BME280;10212;42.714;23.310;2023-02-08T01:42:29;96790.22;;;-5.97;77.75
20105;BME280;10212;42.714;23.310;2023-02-08T01:52:30;96791.94;;;-6.20;78.67
20105;BME280;10212;42.714;23.310;2023-02-08T02:02:31;96806.19;;;-6.16;78.54
20105;BME280;10212;42.714;23.310;2023-02-08T02:12:34;96799.44;;;-6.17;78.60
20105;BME280;10212;42.714;23.310;2023-02-08T02:22:57;96819.88;;;-6.20;79.65
20105;BME280;10212;42.714;23.310;2023-02-08T02:33:27;96835.66;;;-6.36;80.49
20105;BME280;10212;42.714;23.310;2023-02-08T02:54:05;96851.63;;;-6.58;81.04
20105;BME280;10212;42.714;23.310;2023-02-08T03:04:44;96859.44;;;-6.90;82.47
20105;BME280;10212;42.714;23.310;2023-02-08T03:14:53;96865.84;;;-7.05;83.43
20105;BME280;10212;42.714;23.310;2023-02-08T03:25:01;96859.53;;;-7.20;83.52
20105;BME280;10212;42.714;23.310;2023-02-08T03:35:24;96864.38;;;-7.12;82.96
20105;BME280;10212;42.714;23.310;2023-02-08T03:45:33;96864.75;;;-7.24;83.81
20105;BME280;10212;42.714;23.310;2023-02-08T03:55:38;96856.03;;;-7.16;84.26
20105;BME280;10212;42.714;23.310;2023-02-08T04:05:41;96866.22;;;-7.17;85.68
20105;BME280;10212;42.714;23.310;2023-02-08T04:15:42;96879.78;;;-7.45;84.70
20105;BME280;10212;42.714;23.310;2023-02-08T04:25:43;96885.06;;;-7.53;83.24
20105;BME280;10212;42.714;23.310;2023-02-08T04:35:43;96888.69;;;-7.62;84.12
20105;BME280;10212;42.714;23.310;2023-02-08T04:45:44;96879.75;;;-7.74;84.72
20105;BME280;10212;42.714;23.310;2023-02-08T04:55:44;96904.63;;;-7.89;85.38
20105;BME280;10212;42.714;23.310;2023-02-08T05:05:44;96925.94;;;-7.94;85.23
20105;BME280;10212;42.714;23.310;2023-02-08T05:15:45;96943.66;;;-7.94;84.79
20105;BME280;10212;42.714;23.310;2023-02-08T05:25:45;96952.81;;;-7.90;84.41
20105;BME280;10212;42.714;23.310;2023-02-08T05:35:46;96951.41;;;-8.01;85.80
20105;BME280;10212;42.714;23.310;2023-02-08T05:45:48;96970.63;;;-7.93;85.34
20105;BME280;10212;42.714;23.310;2023-02-08T05:55:49;96973.00;;;-7.87;85.08
20105;BME280;10212;42.714;23.310;2023-02-08T06:05:49;96969.56;;;-7.84;84.15
20105;BME280;10212;42.714;23.310;2023-02-08T06:15:49;96969.50;;;-7.83;84.66
20105;BME280;10212;42.714;23.310;2023-02-08T06:25:50;96979.56;;;-7.50;83.23
20105;BME280;10212;42.714;23.310;2023-02-08T06:35:51;96992.69;;;-7.35;81.83
20105;BME280;10212;42.714;23.310;2023-02-08T06:45:51;96997.66;;;-7.32;79.74
20105;BME280;10212;42.714;23.310;2023-02-08T06:55:52;96994.66;;;-7.15;79.24
20105;BME280;10212;42.714;23.310;2023-02-08T07:05:52;97000.59;;;-6.87;76.91
20105;BME280;10212;42.714;23.310;2023-02-08T07:15:53;97012.03;;;-6.46;73.74
20105;BME280;10212;42.714;23.310;2023-02-08T07:26:00;97028.50;;;-6.87;75.87
20105;BME280;10212;42.714;23.310;2023-02-08T07:36:00;97039.69;;;-6.66;75.81
20105;BME280;10212;42.714;23.310;2023-02-08T07:46:14;97037.03;;;-6.34;76.13
20105;BME280;10212;42.714;23.310;2023-02-08T07:56:15;97046.22;;;-5.78;74.08
20105;BME280;10212;42.714;23.310;2023-02-08T08:06:20;97034.66;;;-5.89;74.54
20105;BME280;10212;42.714;23.310;2023-02-08T08:16:21;97025.72;;;-5.99;73.83
20105;BME280;10212;42.714;23.310;2023-02-08T08:26:21;97035.22;;;-5.55;74.16
20105;BME280;10212;42.714;23.310;2023-02-08T08:36:22;97037.66;;;-5.28;72.01
20105;BME280;10212;42.714;23.310;2023-02-08T08:46:22;97042.34;;;-4.93;71.25
20105;BME280;10212;42.714;23.310;2023-02-08T08:56:22;97040.50;;;-4.67;70.52
20105;BME280;10212;42.714;23.310;2023-02-08T09:06:23;97049.28;;;-4.52;68.60
20105;BME280;10212;42.714;23.310;2023-02-08T09:16:24;97043.81;;;-3.99;67.75
20105;BME280;10212;42.714;23.310;2023-02-08T09:26:24;97051.16;;;-3.91;66.63
20105;BME280;10212;42.714;23.310;2023-02-08T09:36:28;97053.47;;;-3.66;65.16
20105;BME280;10212;42.714;23.310;2023-02-08T09:46:32;97041.66;;;-3.47;65.21
20105;BME280;10212;42.714;23.310;2023-02-08T09:56:39;97033.34;;;-2.93;63.63
20105;BME280;10212;42.714;23.310;2023-02-08T10:06:40;97024.72;;;-2.91;62.14
20105;BME280;10212;42.714;23.310;2023-02-08T10:16:48;97018.34;;;-2.45;59.50
20105;BME280;10212;42.714;23.310;2023-02-08T10:37:46;97019.66;;;-2.18;56.58
20105;BME280;10212;42.714;23.310;2023-02-08T10:47:47;97025.81;;;-2.22;57.62
20105;BME280;10212;42.714;23.310;2023-02-08T10:57:50;97038.38;;;-2.92;60.01
20105;BME280;10212;42.714;23.310;2023-02-08T11:18:40;97046.34;;;-3.78;64.62
20105;BME280;10212;42.714;23.310;2023-02-08T11:28:39;97049.47;;;-3.31;63.50
20105;BME280;10212;42.714;23.310;2023-02-08T11:38:41;97046.81;;;-3.68;63.27
20105;BME280;10212;42.714;23.310;2023-02-08T11:48:49;97052.09;;;-3.52;64.50
20105;BME280;10212;42.714;23.310;2023-02-08T12:09:08;97048.63;;;-3.51;62.66
20105;BME280;10212;42.714;23.310;2023-02-08T12:29:40;97036.88;;;-3.55;61.50
20105;BME280;10212;42.714;23.310;2023-02-08T12:39:55;97042.06;;;-3.17;59.36
20105;BME280;10212;42.714;23.310;2023-02-08T13:00:29;97045.81;;;-2.68;53.99
20105;BME280;10212;42.714;23.310;2023-02-08T13:10:38;97054.50;;;-2.72;54.22
20105;BME280;10212;42.714;23.310;2023-02-08T13:20:49;97071.84;;;-2.79;55.02
20105;BME280;10212;42.714;23.310;2023-02-08T13:30:57;97076.34;;;-3.03;55.62
20105;BME280;10212;42.714;23.310;2023-02-08T13:41:17;97074.16;;;-3.32;58.69
20105;BME280;10212;42.714;23.310;2023-02-08T14:01:34;97100.41;;;-3.70;58.25
20105;BME280;10212;42.714;23.310;2023-02-08T14:11:49;97099.38;;;-3.87;62.08
20105;BME280;10212;42.714;23.310;2023-02-08T14:22:14;97101.56;;;-3.98;61.60
20105;BME280;10212;42.714;23.310;2023-02-08T14:32:24;97108.91;;;-4.13;61.38
20105;BME280;10212;42.714;23.310;2023-02-08T14:43:00;97097.09;;;-4.15;62.50
20105;BME280;10212;42.714;23.310;2023-02-08T14:53:14;97104.53;;;-4.31;64.96
20105;BME280;10212;42.714;23.310;2023-02-08T15:03:16;97117.00;;;-4.46;64.35
20105;BME280;10212;42.714;23.310;2023-02-08T15:13:20;97123.59;;;-4.64;62.46
20105;BME280;10212;42.714;23.310;2023-02-08T15:23:23;97134.22;;;-4.77;62.80
20105;BME280;10212;42.714;23.310;2023-02-08T15:33:24;97139.03;;;-4.93;63.12
20105;BME280;10212;42.714;23.310;2023-02-08T15:43:24;97134.91;;;-4.96;64.45
20105;BME280;10212;42.714;23.310;2023-02-08T15:53:25;97144.56;;;-5.05;65.48
20105;BME280;10212;42.714;23.310;2023-02-08T16:03:27;97143.25;;;-5.16;66.25
20105;BME280;10212;42.714;23.310;2023-02-08T16:13:31;97147.09;;;-5.29;67.17
20105;BME280;10212;42.714;23.310;2023-02-08T16:23:34;97168.28;;;-5.54;68.23
20105;BME280;10212;42.714;23.310;2023-02-08T16:33:37;97169.25;;;-5.59;68.17
20105;BME280;10212;42.714;23.310;2023-02-08T16:43:39;97178.66;;;-5.61;68.58
20105;BME280;10212;42.714;23.310;2023-02-08T16:53:43;97182.44;;;-5.74;68.25
20105;BME280;10212;42.714;23.310;2023-02-08T17:03:46;97193.69;;;-5.82;68.88
20105;BME280;10212;42.714;23.310;2023-02-08T17:13:46;97191.31;;;-5.86;69.16
20105;BME280;10212;42.714;23.310;2023-02-08T17:23:47;97188.22;;;-5.96;69.84
20105;BME280;10212;42.714;23.310;2023-02-08T17:33:48;97182.22;;;-5.94;69.96
20105;BME280;10212;42.714;23.310;2023-02-08T17:43:50;97190.91;;;-6.01;71.41
20105;BME280;10212;42.714;23.310;2023-02-08T17:53:52;97189.88;;;-6.22;72.93
20105;BME280;10212;42.714;23.310;2023-02-08T18:03:53;97194.44;;;-6.34;74.01
20105;BME280;10212;42.714;23.310;2023-02-08T18:13:54;97185.94;;;-6.33;73.24
20105;BME280;10212;42.714;23.310;2023-02-08T18:23:54;97187.78;;;-6.38;73.18
20105;BME280;10212;42.714;23.310;2023-02-08T18:33:55;97192.13;;;-6.42;73.26
20105;BME280;10212;42.714;23.310;2023-02-08T18:43:57;97193.91;;;-6.45;73.91
20105;BME280;10212;42.714;23.310;2023-02-08T18:53:57;97188.03;;;-6.47;73.89
20105;BME280;10212;42.714;23.310;2023-02-08T19:03:58;97190.59;;;-6.47;73.22
20105;BME280;10212;42.714;23.310;2023-02-08T19:14:00;97195.16;;;-6.59;72.72
20105;BME280;10212;42.714;23.310;2023-02-08T19:24:01;97206.84;;;-6.53;73.24
20105;BME280;10212;42.714;23.310;2023-02-08T19:34:02;97202.78;;;-6.59;73.49
20105;BME280;10212;42.714;23.310;2023-02-08T19:44:05;97217.22;;;-6.61;72.97
20105;BME280;10212;42.714;23.310;2023-02-08T19:54:09;97218.88;;;-6.60;73.34
20105;BME280;10212;42.714;23.310;2023-02-08T20:04:12;97222.72;;;-6.76;72.90
20105;BME280;10212;42.714;23.310;2023-02-08T20:14:13;97212.31;;;-6.67;73.24
20105;BME280;10212;42.714;23.310;2023-02-08T20:24:14;97212.63;;;-6.48;72.80
20105;BME280;10212;42.714;23.310;2023-02-08T20:34:16;97210.03;;;-6.46;72.11
20105;BME280;10212;42.714;23.310;2023-02-08T20:44:17;97219.84;;;-6.64;72.50
20105;BME280;10212;42.714;23.310;2023-02-08T20:54:18;97227.97;;;-6.83;73.92
20105;BME280;10212;42.714;23.310;2023-02-08T21:04:19;97219.00;;;-6.96;74.98
20105;BME280;10212;42.714;23.310;2023-02-08T21:14:22;97215.97;;;-7.09;75.79
20105;BME280;10212;42.714;23.310;2023-02-08T21:24:23;97219.47;;;-7.14;75.73
20105;BME280;10212;42.714;23.310;2023-02-08T21:34:24;97216.88;;;-7.12;75.27
20105;BME280;10212;42.714;23.310;2023-02-08T21:44:24;97221.25;;;-7.17;75.48
20105;BME280;10212;42.714;23.310;2023-02-08T21:54:26;97227.97;;;-7.16;75.87
20105;BME280;10212;42.714;23.310;2023-02-08T22:04:43;97233.84;;;-7.14;75.47
20105;BME280;10212;42.714;23.310;2023-02-08T22:14:46;97244.97;;;-7.20;76.41
20105;BME280;10212;42.714;23.310;2023-02-08T22:24:47;97251.03;;;-7.26;76.04
20105;BME280;10212;42.714;23.310;2023-02-08T22:34:48;97247.78;;;-7.31;75.98
20105;BME280;10212;42.714;23.310;2023-02-08T22:44:48;97249.44;;;-7.30;76.68
20105;BME280;10212;42.714;23.310;2023-02-08T22:54:49;97250.75;;;-7.50;76.29
20105;BME280;10212;42.714;23.310;2023-02-08T23:04:50;97248.22;;;-7.50;77.19
20105;BME280;10212;42.714;23.310;2023-02-08T23:14:51;97246.66;;;-7.54;76.86
20105;BME280;10212;42.714;23.310;2023-02-08T23:24:51;97248.16;;;-7.46;76.53
20105;BME280;10212;42.714;23.310;2023-02-08T23:34:51;97232.88;;;-7.43;77.04
20105;BME280;10212;42.714;23.310;2023-02-08T23:44:56;97236.97;;;-7.39;76.65
20105;BME280;10212;42.714;23.310;2023-02-08T23:54:57;97232.00;;;-7.42;77.51
